Aérodrome :
LOGIN :

S'inscrire | Disclaimer

   EN    FR    IT 

 










Légende :    VFR   VFR Marginal   IFR   IFR Intensif   IFR Très Intensif
Visi : 
Plafond : 
>= 8 km
>= 3000ft
5 à 8 km
1000 à 3000 ft
1500m à 5 km
500 à 1000 ft
800 à 1500m
200 à 500 ft
< 800m
< 200 ft
Symboles :   Orages  Brouillard  Fortes neiges  Fortes précipitations  Vent > 20 kt
SIGMETs :   Divers  Orages  Givrage  Turbulence  Onde Orograph.  Cendres Volcan.







- Altitude de l'aérodrome : 392 ft
- Code IATA : CDG
- Voir les cartes d'approche


LFPG - Paris-Aeroport Charles De Gaulle

DERNIER METAR :
  • 220600Z 25012KT 9999 BKN023 11/06 Q1016 NOSIG

METARs EXPIRÉS :
  • 220530Z 26011KT 9999 BKN025 11/06 Q1017 NOSIG
  • 220500Z 26012KT 9999 BKN025 11/06 Q1017 NOSIG
  • 220430Z 26013KT 9999 BKN025 11/07 Q1017 NOSIG
  • 220400Z 25011KT 9999 SCT021 BKN027 11/07 Q1017 NOSIG
  • 220330Z 25012KT 9999 BKN021 BKN028 11/07 Q1017 NOSIG
  • 220300Z 26015KT 9999 BKN019 BKN026 11/08 Q1017 NOSIG

TAF TAF LFPG
Valide du 22 à 06h jusqu'au 23 à 12h UTC


220500Z 2206/2312 24012KT 9999 BKN020
PROB30
TEMPO 2206/2213 BKN011
BECMG 2208/2210 23015G25KT
PROB30
TEMPO 2303/2308 BKN012
TEMPO 2310/2312 23020G35KT 4000 RA BKN010
PROB40
TEMPO 2311/2312 23020G40KT TX12/2215Z TN09/2206Z
ATIS : +33 1 48 62 10 92
Pas de NOTAMs connus pour ce terrain.
1 SIGMET publié pour la FIR Paris (LFFF) :
 
Turbulence forte
LFFF SIGMET 1 VALID 220300/220700 LFPW
LFFF PARIS FIR/UIR SEV TURB FCST WI N5000 W00015 - N5115 E00200 - N5045 E00315 - N4945 E00145 SFC/FL050 STNR NC=



MET'MAP, la Météo Aéronautique d'un coup d'oeil ! - Copyright ORBIFLY Décembre 2007 - Disclaimer

ORBIFLY MET'MAP TEAM :

Programmation & Développement : Alexandra Zaïnal
Conception & Développement : Baudouin d'Aumeries
Co-Programmation & Développement : Marc-Olivier Méhu
Soutien technique & logistique : Manuel Goepfert

Contact : metmap@orbifly.com




SOURCES & CREDITS :

   NOAA